Sadan Bayraktar — TCRB — position and weather

sailwx.info

Track history (hours):
 
Tides and Currents Weather Stations Pressure Air Temp Water Temp Dewpoint Dewpoint Depression Visibility Wind Speed Wind Dir Waves Ship Positions

Sadan Bayraktar

Last reported at 2016-Jun-25 05:28 UTC. Time now 2016-Jun-30 03:23 UTC.
Position N 40°51' E 029°17'.

Length 116 m; draft 5 m.

Type: Ship. MMSI: 271000653.

Date/timePositionNaut miles runAvg speedWind from/ knotsBaromVisibWave heightAir tempDewpointWater temp
2016-Jun-25 05:28N 40°51' E 029°17'0 0.0
2016-Jun-25 04:22N 40°51' E 029°17'1 1.2
2016-Jun-25 03:33N 40°51' E 029°16'2 2.1
2016-Jun-25 02:24N 40°49' E 029°14'0 0.0
2016-Jun-25 01:30N 40°49' E 029°14'0 0.0
2016-Jun-25 00:30N 40°49' E 029°14'0 0.0
2016-Jun-24 23:24N 40°49' E 029°14'0 0.0
2016-Jun-24 22:24N 40°49' E 029°14'0 0.0
2016-Jun-24 21:24N 40°49' E 029°14'0 0.0
2016-Jun-24 20:27N 40°49' E 029°14'0 0.0
2016-Jun-24 19:33N 40°49' E 029°14'0 0.1
2016-Jun-24 18:33N 40°49' E 029°14'0 0.0
2016-Jun-24 17:33N 40°49' E 029°14'0 0.0
2016-Jun-24 16:33N 40°49' E 029°14'0 0.0
2016-Jun-24 15:33N 40°49' E 029°14'0 0.0
2016-Jun-24 14:33N 40°49' E 029°14'2 2.1
2016-Jun-24 13:33N 40°48' E 029°11'9 9.0
2016-Jun-24 12:33N 40°46' E 028°60'306 9.5
2016-Jun-23 04:27N 37°25' E 024°02'910.3
2016-Jun-23 03:32N 37°17' E 023°57'44510.8
2016-Jun-21 10:33N 36°29' E 014°44'1712.5
2016-Jun-21 09:09N 36°29' E 014°22'1112.9
2016-Jun-21 08:17N 36°32' E 014°09'1312.6
2016-Jun-21 07:15N 36°34' E 013°53'2112.1
2016-Jun-21 05:33N 36°39' E 013°28'56711.6
2016-Jun-19 04:26N 36°50' E 001°40'130 5.4
2016-Jun-18 04:26N 35°43' W 000°38'0 0.0
2016-Jun-18 03:15N 35°43' W 000°38'  
Track history (hours):
 
Tides and Currents Weather Stations Pressure Air Temp Water Temp Dewpoint Dewpoint Depression Visibility Wind Speed Wind Dir Waves Ship Positions

Sadan Bayraktar

Last reported at 2016-Jun-25 05:28 UTC. Time now 2016-Jun-30 03:23 UTC.
Position N 40°51' E 029°17'.

Length 116 m; draft 5 m.

Type: Ship. MMSI: 271000653.

Date/timePositionNaut miles runAvg speedWind from/ knotsBaromVisibWave heightAir tempDewpointWater temp
2016-Jun-25 05:28N 40°51' E 029°17'0 0.0
2016-Jun-25 04:22N 40°51' E 029°17'1 1.2
2016-Jun-25 03:33N 40°51' E 029°16'2 2.1
2016-Jun-25 02:24N 40°49' E 029°14'0 0.0
2016-Jun-25 01:30N 40°49' E 029°14'0 0.0
2016-Jun-25 00:30N 40°49' E 029°14'0 0.0
2016-Jun-24 23:24N 40°49' E 029°14'0 0.0
2016-Jun-24 22:24N 40°49' E 029°14'0 0.0
2016-Jun-24 21:24N 40°49' E 029°14'0 0.0
2016-Jun-24 20:27N 40°49' E 029°14'0 0.0
2016-Jun-24 19:33N 40°49' E 029°14'0 0.1
2016-Jun-24 18:33N 40°49' E 029°14'0 0.0
2016-Jun-24 17:33N 40°49' E 029°14'0 0.0
2016-Jun-24 16:33N 40°49' E 029°14'0 0.0
2016-Jun-24 15:33N 40°49' E 029°14'0 0.0
2016-Jun-24 14:33N 40°49' E 029°14'2 2.1
2016-Jun-24 13:33N 40°48' E 029°11'9 9.0
2016-Jun-24 12:33N 40°46' E 028°60'306 9.5
2016-Jun-23 04:27N 37°25' E 024°02'910.3
2016-Jun-23 03:32N 37°17' E 023°57'44510.8
2016-Jun-21 10:33N 36°29' E 014°44'1712.5
2016-Jun-21 09:09N 36°29' E 014°22'1112.9
2016-Jun-21 08:17N 36°32' E 014°09'1312.6
2016-Jun-21 07:15N 36°34' E 013°53'2112.1
2016-Jun-21 05:33N 36°39' E 013°28'56711.6
2016-Jun-19 04:26N 36°50' E 001°40'130 5.4
2016-Jun-18 04:26N 35°43' W 000°38'0 0.0
2016-Jun-18 03:15N 35°43' W 000°38'  

Dump ship's entire track history